Waconia, Minnesota
Current Conditions -  °F | °C
As of 5:54 PM on Friday 31 Oct 2014 (Local Time) from KGYL Reporting Station
Clear Clear  
Wind Chill: 37°   Ceiling: Unl
Heat Index: 37°   Visibility: 10mi
Dew Point: 17°   Wind: 0mph
Humidity: 45%   Direction: NA
Pressure: 30.49"   Gusts: NA
Location:  44.85°N, 93.79°W
Report Text: KGYL 312254Z AUTO 00000KT 10SM CLR 03/M08 A3049 RMK AO2 T00271082
Loading
Personal Weather Stations






























Interactive Weather Map
Tropical Storm Tracking
New forecast layout! Learn more

10-Day Weather Forecast

Advertisements
Track Severe Weather on mobile